• Join FlightAware (Why Join?)
  • Login
  • US Flag 
01:52PM EDT


 

Airport Tracker/Info


-or-


 

Live Flight TrackerFlight Track Log ✈ JBU1183 ✈ 26-Sep-2013 ✈ KJFK - KMCO

Flight Track Log - Related Links

Times and Time Zones

All times are in EDT time to prevent confusion due to time zone crossing. See the JBU1183 flight status page for this flight to view local times or setup timezone preferences in your user account.

Time Position Orientation Groundspeed Altitude Reporting Facility
EDT Latitude Longitude Course Direction KTS MPH feet Rate Location/Type
10:35PM 40.6460 -73.7720 34° Northeast  Level FlightAware
10:38PM 40.4453 -73.9191 143° Southeast  Level Estimated
10:39PM 40.3634 -73.9789 143° Southeast  Level Estimated
10:40PM 40.2814 -74.0385 143° Southeast  Level Estimated
10:41PM 40.1994 -74.0980 146° Southeast  Level Estimated
10:42PM 40.1833 -73.9771 100° East  Level FlightAware Approximate
10:43PM 40.1016 -74.0373 223° Southwest  Level Estimated
10:44PM 40.0841 -73.9169 101° East  Level FlightAware Approximate
10:45PM 40.0028 -73.9778 220° Southwest  Level Estimated
10:46PM 39.9437 -73.8828 129° Southeast  Level FlightAware Approximate
10:47PM 39.8852 -73.7892 129° Southeast  Level FlightAware Approximate
10:48PM 39.8056 -73.8507 221° Southwest  Level Estimated
10:49PM 39.7137 -73.8656 187° South  Level FlightAware Approximate
10:50PM 39.6218 -73.8804 187° South  Level FlightAware Approximate
10:58PM 40.4474 -73.5974 143° Southeast  Level FlightAware Approximate
10:59PM 40.6330 -73.7820 300° West 120 138  Level FlightAware
10:59PM 40.6410 -73.8010 299° West 161 185 500 1,800 Climbing FlightAware
11:00PM 40.6450 -73.8140 292° West 159 183 1,200 2,100 Climbing FlightAware
11:00PM 40.6370 -73.8420 249° West 194 223 2,000 1,680 Climbing FlightAware
11:00PM 40.6270 -73.8640 239° Southwest 230 265 2,500 1,500 Climbing FlightAware
11:01PM 40.6220 -73.8720 231° Southwest 241 277 2,700 1,800 Climbing FlightAware
11:01PM 40.6180 -73.8760 217° Southwest 248 285 2,900 2,280 Climbing FlightAware
11:01PM 40.6080 -73.8820 204° Southwest 264 304 3,200 2,220 Climbing FlightAware
11:01PM 40.5980 -73.8840 189° South 273 314 3,500 2,880 Climbing FlightAware
11:01PM 40.5700 -73.8760 168° South 291 335 4,700 3,300 Climbing FlightAware
11:01PM 40.5570 -73.8660 150° Southeast 295 339 5,400 3,480 Climbing FlightAware
11:02PM 40.5510 -73.8590 138° Southeast 295 339 5,700 4,320 Climbing FlightAware
11:02PM 40.5360 -73.8410 138° Southeast 284 327 7,000 4,620 Climbing FlightAware
11:02PM 40.5190 -73.8160 132° Southeast 281 323 8,500 3,960 Climbing FlightAware
11:02PM 40.5050 -73.7950 131° Southeast 286 329 9,400 2,820 Climbing FlightAware
11:03PM 40.4730 -73.7460 131° Southeast 317 365 10,900 2,280 Climbing FlightAware
11:04PM 40.4370 -73.6930 132° Southeast 355 409 12,000 2,400 Climbing FlightAware
11:04PM 40.4020 -73.6400 131° Southeast 363 418 13,600 2,700 Climbing FlightAware
11:05PM 40.3590 -73.5770 132° Southeast 378 435 15,200 1,800 Climbing FlightAware
11:05PM 40.3170 -73.5150 132° Southeast 380 437 15,800 900 Climbing FlightAware
11:06PM 40.2730 -73.4510 132° Southeast 388 447 16,300 1,740 Climbing FlightAware
11:06PM 40.2310 -73.3930 133° Southeast 394 453 17,900 2,520 Climbing FlightAware
11:07PM 40.2010 -73.3660 145° Southeast 405 466 18,600 2,460 Climbing FlightAware
11:07PM 40.1650 -73.3490 160° South 408 470 19,500 2,220 Climbing FlightAware
11:08PM 40.1110 -73.3400 173° South 418 481 20,500 2,040 Climbing FlightAware
11:08PM 40.0590 -73.3470 186° South 421 484 21,500 1,920 Climbing FlightAware
11:09PM 40.0040 -73.3730 200° South 433 498 22,300 1,740 Climbing FlightAware
11:09PM 39.9690 -73.4020 212° Southwest 432 497 22,900 720 Climbing FlightAware
11:10PM 39.9140 -73.4630 220° Southwest 431 496 23,000 60 Climbing FlightAware
11:10PM 39.8650 -73.5180 221° Southwest 433 498 23,000 840 Level FlightAware
11:11PM 39.7870 -73.6010 219° Southwest 440 506 24,200 1,500 Climbing FlightAware
11:11PM 39.7310 -73.6540 216° Southwest 451 519 25,100 1,200 Climbing FlightAware
11:12PM 39.6460 -73.7340 216° Southwest 452 520 26,000 600 Climbing FlightAware
11:13PM 39.5960 -73.7810 216° Southwest 452 520 26,000  Level FlightAware
11:14PM 39.5440 -73.8300 216° Southwest 452 520 26,000  Level FlightAware
11:14PM 39.5010 -73.8710 216° Southwest 452 520 26,000  Level FlightAware
11:15PM 39.4520 -73.9170 216° Southwest 452 520 26,000 3,600 Level FlightAware
11:15PM 39.3360 -74.0310 217° Southwest 482 555 30,800 4,320 Climbing FlightAware
11:16PM 39.2570 -74.1060 216° Southwest 474 545 32,200 2,040 Climbing FlightAware
11:17PM 39.1910 -74.1690 217° Southwest 468 539 33,400 1,440 Climbing FlightAware
11:17PM 39.1350 -74.2220 216° Southwest 467 537 33,900 480 Climbing FlightAware
11:18PM 39.0710 -74.2830 217° Southwest 462 532 34,000 60 Climbing FlightAware
11:18PM 39.0080 -74.3410 216° Southwest 465 535 34,000 420 Level FlightAware
11:19PM 38.9530 -74.3930 216° Southwest 458 527 34,500 1,020 Climbing FlightAware
11:20PM 38.8910 -74.4510 216° Southwest 458 527 35,200 1,020 Climbing FlightAware
11:20PM 38.8310 -74.5070 216° Southwest 461 531 35,700 960 Climbing FlightAware
11:21PM 38.7580 -74.5760 216° Southwest 463 533 36,500 1,200 Climbing FlightAware
11:21PM 38.6960 -74.6330 216° Southwest 458 527 37,300 1,200 Climbing FlightAware
11:22PM 38.6340 -74.6900 216° Southwest 458 527 37,900 540 Climbing FlightAware
11:23PM 38.5740 -74.7470 217° Southwest 458 527 38,000 60 Climbing FlightAware
11:23PM 38.5120 -74.8040 216° Southwest 458 527 38,000  Level FlightAware
11:24PM 38.4530 -74.8580 216° Southwest 461 531 38,000  Level FlightAware
11:24PM 38.3890 -74.9170 216° Southwest 461 531 38,000  Level FlightAware
11:25PM 38.3290 -74.9720 216° Southwest 460 529 38,000  Level FlightAware
11:26PM 38.2570 -75.0390 216° Southwest 459 528 38,000  Level FlightAware
11:26PM 38.1980 -75.0930 216° Southwest 459 528 38,000  Level FlightAware
11:27PM 38.1350 -75.1500 215° Southwest 459 528 38,000  Level FlightAware
11:27PM 38.0740 -75.2050 215° Southwest 459 528 38,000  Level FlightAware
11:28PM 38.0120 -75.2610 215° Southwest 458 527 38,000  Level FlightAware
11:29PM 37.9500 -75.3170 215° Southwest 458 527 38,000  Level FlightAware
11:29PM 37.8880 -75.3740 216° Southwest 457 526 38,000  Level FlightAware
11:30PM 37.8190 -75.4370 216° Southwest 457 526 38,000  Level FlightAware
11:30PM 37.7580 -75.4920 215° Southwest 457 526 38,000  Level FlightAware
11:31PM 37.6960 -75.5470 215° Southwest 458 527 38,000  Level FlightAware
11:32PM 37.6370 -75.6000 215° Southwest 458 527 38,000  Level FlightAware
11:32PM 37.5660 -75.6640 216° Southwest 458 527 38,000  Level FlightAware
11:33PM 37.5120 -75.7120 215° Southwest 458 527 38,000  Level FlightAware
11:33PM 37.4550 -75.7630 215° Southwest 459 528 38,000  Level FlightAware
11:34PM 37.3860 -75.8240 215° Southwest 458 527 38,000  Level FlightAware
11:34PM 37.3240 -75.8790 215° Southwest 458 527 38,000  Level FlightAware
11:35PM 37.2640 -75.9330 216° Southwest 457 526 38,000  Level FlightAware
11:36PM 37.2030 -75.9900 217° Southwest 455 524 38,000  Level FlightAware
11:36PM 37.1460 -76.0490 220° Southwest 459 528 38,000  Level FlightAware
11:37PM 37.0890 -76.1070 219° Southwest 458 527 38,000  Level FlightAware
11:37PM 37.0310 -76.1650 219° Southwest 458 527 38,000  Level FlightAware
11:38PM 36.9730 -76.2230 219° Southwest 454 522 38,000  Level FlightAware
11:39PM 36.9170 -76.2790 219° Southwest 454 522 38,000  Level FlightAware
11:39PM 36.8540 -76.3420 219° Southwest 462 532 38,000  Level FlightAware
11:40PM 36.7950 -76.4010 219° Southwest 461 531 38,000  Level FlightAware
11:40PM 36.7370 -76.4580 218° Southwest 462 532 38,000  Level FlightAware
11:41PM 36.6790 -76.5150 218° Southwest 461 531 38,000  Level FlightAware
11:41PM 36.6170 -76.5770 219° Southwest 461 531 38,000  Level FlightAware
11:42PM 36.5630 -76.6300 218° Southwest 460 529 38,000  Level FlightAware
11:43PM 36.5020 -76.6900 218° Southwest 460 529 38,000  Level FlightAware
11:43PM 36.4340 -76.7570 218° Southwest 455 524 38,000  Level FlightAware
11:44PM 36.3660 -76.8230 218° Southwest 455 524 38,000  Level FlightAware
11:45PM 36.3070 -76.8810 218° Southwest 456 525 38,000  Level FlightAware
11:45PM 36.2490 -76.9380 218° Southwest 456 525 38,000  Level FlightAware
11:46PM 36.1800 -77.0050 218° Southwest 457 526 38,000  Level FlightAware
11:46PM 36.1300 -77.0530 218° Southwest 457 526 38,000  Level FlightAware
11:47PM 36.0710 -77.1100 218° Southwest 458 527 38,000  Level FlightAware
11:48PM 35.9960 -77.1830 218° Southwest 458 527 38,000  Level FlightAware
11:48PM 35.9320 -77.2450 218° Southwest 467 537 38,000  Level FlightAware
11:49PM 35.8580 -77.3170 218° Southwest 467 537 38,000  Level FlightAware
11:50PM 35.8070 -77.3650 217° Southwest 468 539 38,000  Level FlightAware
11:50PM 35.7450 -77.4240 218° Southwest 467 537 38,000  Level FlightAware
11:51PM 35.6700 -77.4960 218° Southwest 467 537 38,000  Level FlightAware
11:51PM 35.6270 -77.5370 218° Southwest 465 535 38,000  Level FlightAware
11:52PM 35.5290 -77.6310 218° Southwest 462 532 38,000  Level FlightAware
11:53PM 35.4690 -77.6880 218° Southwest 461 531 38,000  Level FlightAware
11:54PM 35.3910 -77.7620 218° Southwest 460 529 38,000  Level FlightAware
11:54PM 35.3400 -77.8100 218° Southwest 460 529 38,000  Level FlightAware
11:55PM 35.2760 -77.8710 218° Southwest 460 529 38,000  Level FlightAware
11:55PM 35.2160 -77.9270 217° Southwest 463 533 38,000  Level FlightAware
11:56PM 35.1400 -77.9990 218° Southwest 463 533 38,000  Level FlightAware
11:57PM 35.0570 -78.0770 218° Southwest 463 533 38,000  Level FlightAware
11:57PM 35.0020 -78.1280 217° Southwest 464 534 38,000  Level FlightAware
11:58PM 34.9400 -78.1860 217° Southwest 465 535 38,000  Level FlightAware
11:59PM 34.8810 -78.2410 217° Southwest 466 536 38,000  Level FlightAware
11:59PM 34.8230 -78.2950 217° Southwest 466 536 38,000  Level FlightAware
12:00AM 34.7640 -78.3500 217° Southwest 466 536 38,000  Level FlightAware
12:00AM 34.7090 -78.4010 217° Southwest 466 536 38,000  Level FlightAware
12:01AM 34.6480 -78.4580 218° Southwest 465 535 38,000  Level FlightAware
12:02AM 34.7660 -78.3480 37° Northeast 466 536 38,000  Level FlightAware
12:02AM 34.7040 -78.4060 218° Southwest 466 536 38,000  Level FlightAware
12:03AM 34.6410 -78.4650 218° Southwest 465 535 38,000  Level FlightAware
12:03AM 34.5540 -78.5450 217° Southwest 464 534 38,000  Level FlightAware
12:04AM 34.4960 -78.5980 217° Southwest 465 535 38,000  Level FlightAware
12:05AM 34.4420 -78.6460 216° Southwest 468 539 38,000  Level FlightAware
12:05AM 34.3780 -78.6850 207° Southwest 480 552 38,000  Level FlightAware
12:06AM 34.3220 -78.7110 201° Southwest 479 551 38,000  Level FlightAware
12:06AM 34.2870 -78.7280 202° Southwest 479 551 38,000  Level FlightAware
12:07AM 34.2550 -78.7440 202° Southwest 478 550 38,000  Level FlightAware
12:08AM 34.2210 -78.7620 204° Southwest 478 550 38,000  Level FlightAware
12:08AM 34.1860 -78.7800 203° Southwest 478 550 38,000  Level FlightAware
12:09AM 34.1390 -78.8040 203° Southwest 478 550 38,000  Level FlightAware
12:09AM 34.0660 -78.8410 203° Southwest 478 550 38,000  Level FlightAware
12:10AM 33.5750 -79.0870 203° Southwest 479 551 38,000  Level FlightAware
12:11AM 33.4990 -79.1250 203° Southwest 477 549 38,000  Level FlightAware
12:11AM 33.4060 -79.1710 202° Southwest 474 545 38,000  Level FlightAware
12:12AM 33.3450 -79.2020 203° Southwest 472 543 38,000  Level FlightAware
12:12AM 33.2720 -79.2380 202° Southwest 471 542 38,000  Level FlightAware
12:13AM 33.1960 -79.2750 202° Southwest 469 540 38,000  Level FlightAware
12:14AM 33.1280 -79.3090 203° Southwest 468 539 38,000  Level FlightAware
12:14AM 33.0610 -79.3420 202° Southwest 465 535 38,000  Level FlightAware
12:15AM 32.9900 -79.3770 202° Southwest 464 534 38,000  Level FlightAware
12:15AM 32.9110 -79.4160 203° Southwest 464 534 38,000  Level FlightAware
12:16AM 32.8390 -79.4510 202° Southwest 464 534 38,000  Level FlightAware
12:17AM 32.7690 -79.4850 202° Southwest 464 534 38,000  Level FlightAware
12:17AM 32.6980 -79.5200 203° Southwest 464 534 38,000  Level FlightAware
12:18AM 32.6300 -79.5530 202° Southwest 464 534 38,000  Level FlightAware
12:18AM 32.5610 -79.5870 203° Southwest 462 532 38,000  Level FlightAware
12:19AM 32.4910 -79.6210 202° Southwest 461 531 38,000  Level FlightAware
12:20AM 32.4240 -79.6530 202° Southwest 461 531 38,000  Level FlightAware
12:20AM 32.3530 -79.6880 203° Southwest 462 532 38,000  Level FlightAware
12:21AM 32.2900 -79.7180 202° Southwest 461 531 38,000  Level FlightAware
12:21AM 32.2150 -79.7540 202° Southwest 461 531 38,000  Level FlightAware
12:22AM 32.1470 -79.7870 202° Southwest 461 531 38,000  Level FlightAware
12:22AM 32.0870 -79.8160 202° Southwest 461 531 38,000  Level FlightAware
12:23AM 32.0090 -79.8530 202° Southwest 461 531 38,000  Level FlightAware
12:24AM 31.9390 -79.8870 202° Southwest 458 527 38,000  Level FlightAware
12:24AM 31.8710 -79.9200 202° Southwest 457 526 38,000  Level FlightAware
12:25AM 31.8030 -79.9520 202° Southwest 457 526 38,000  Level FlightAware
12:25AM 31.7340 -79.9850 202° Southwest 457 526 38,000  Level FlightAware
12:26AM 31.6550 -80.0230 202° Southwest 460 529 38,000  Level FlightAware
12:27AM 31.5850 -80.0560 202° Southwest 461 531 38,000  Level FlightAware
12:27AM 31.5060 -80.0940 202° Southwest 462 532 38,000  Level FlightAware
12:28AM 31.4470 -80.1220 202° Southwest 462 532 38,000  Level FlightAware
12:29AM 31.3540 -80.1660 202° Southwest 462 532 38,000  Level FlightAware
12:29AM 31.2830 -80.1990 202° Southwest 460 529 38,000  Level FlightAware
12:30AM 31.2210 -80.2280 202° Southwest 459 528 38,000  Level FlightAware
12:30AM 31.1580 -80.2580 202° Southwest 459 528 38,000  Level FlightAware
12:31AM 31.0770 -80.2960 202° Southwest 460 529 38,000  Level FlightAware
12:31AM 31.0140 -80.3250 202° Southwest 461 531 38,000  Level FlightAware
12:32AM 30.9840 -80.3400 203° Southwest 461 531 38,000  Level FlightAware
12:33AM 30.8660 -80.3950 202° Southwest 460 529 38,000  Level FlightAware
12:33AM 30.8410 -80.4060 201° Southwest 460 529 38,000  Level FlightAware
12:33AM 30.8340 -80.4100 206° Southwest 460 529 38,000  Level FlightAware
12:33AM 30.8150 -80.4180 200° South 461 531 38,000  Level FlightAware
12:33AM 30.8020 -80.4230 198° South 462 532 38,000  Level FlightAware
12:33AM 30.7840 -80.4300 198° South 462 532 38,000  Level FlightAware
12:33AM 30.7760 -80.4330 198° South 462 532 38,000  Level FlightAware
12:34AM 30.7630 -80.4370 195° South 462 532 38,000  Level FlightAware
12:34AM 30.7460 -80.4440 199° South 462 532 38,000  Level FlightAware
12:34AM 30.7270 -80.4510 198° South 462 532 38,000  Level FlightAware
12:34AM 30.7170 -80.4540 194° South 461 531 38,000  Level FlightAware
12:34AM 30.7050 -80.4590 200° South 461 531 38,000  Level FlightAware
12:34AM 30.6870 -80.4650 196° South 460 529 38,000  Level FlightAware
12:34AM 30.6770 -80.4690 199° South 461 531 38,000  Level FlightAware
12:34AM 30.6600 -80.4750 197° South 460 529 38,000  Level FlightAware
12:35AM 30.6440 -80.4810 198° South 459 528 38,000  Level FlightAware
12:35AM 30.6310 -80.4860 198° South 459 528 38,000  Level FlightAware
12:35AM 30.6130 -80.4930 199° South 458 527 38,000  Level FlightAware
12:35AM 30.6050 -80.4960 198° South 458 527 38,000  Level FlightAware
12:35AM 30.5920 -80.5010 198° South 458 527 38,000  Level FlightAware
12:35AM 30.5730 -80.5080 198° South 458 527 38,000  Level FlightAware
12:35AM 30.5640 -80.5110 196° South 458 527 38,000  Level FlightAware
12:35AM 30.5480 -80.5180 201° Southwest 458 527 38,000  Level FlightAware
12:35AM 30.5340 -80.5230 197° South 458 527 38,000  Level FlightAware
12:36AM 30.5170 -80.5300 200° South 458 527 38,000  Level FlightAware
12:36AM 30.4990 -80.5360 196° South 458 527 38,000  Level FlightAware
12:36AM 30.4940 -80.5380 199° South 458 527 38,000  Level FlightAware
12:36AM 30.4770 -80.5450 200° South 458 527 38,000  Level FlightAware
12:36AM 30.4630 -80.5500 197° South 458 527 38,000  Level FlightAware
12:36AM 30.4420 -80.5580 198° South 459 528 38,000  Level FlightAware
12:36AM 30.4380 -80.5590 192° South 459 528 38,000  Level FlightAware
12:36AM 30.4200 -80.5660 199° South 459 528 38,000  Level FlightAware
12:37AM 30.4070 -80.5710 198° South 461 531 38,000  Level FlightAware
12:37AM 30.3980 -80.5740 196° South 461 531 38,000  Level FlightAware
12:37AM 30.3800 -80.5810 199° South 462 532 38,000  Level FlightAware
12:37AM 30.3620 -80.5880 199° South 462 532 38,000  Level FlightAware
12:37AM 30.3440 -80.5950 199° South 462 532 38,000  Level FlightAware
12:37AM 30.3320 -80.6000 200° South 462 532 38,000  Level FlightAware
12:37AM 30.3220 -80.6030 195° South 462 532 38,000  Level FlightAware
12:37AM 30.3050 -80.6100 200° South 462 532 38,000  Level FlightAware
12:37AM 30.2910 -80.6150 197° South 462 532 38,000  Level FlightAware
12:38AM 30.2820 -80.6180 196° South 462 532 38,000  Level FlightAware
12:38AM 30.2640 -80.6250 199° South 463 533 38,000 -360 Level FlightAware
12:38AM 30.2470 -80.6320 200° South 463 533 37,900 -1,500 Descending FlightAware
12:38AM 30.2310 -80.6370 195° South 462 532 37,600 -1,920 Descending FlightAware
12:38AM 30.2170 -80.6430 200° South 462 532 37,400 -2,220 Descending FlightAware
12:38AM 30.2090 -80.6460 198° South 462 532 37,200 -3,000 Descending FlightAware
12:38AM 30.1910 -80.6530 199° South 461 531 36,800 -2,400 Descending FlightAware
12:38AM 30.1770 -80.6580 197° South 461 531 36,600 -2,220 Descending FlightAware
12:38AM 30.1680 -80.6610 196° South 461 531 36,400 -2,580 Descending FlightAware
12:39AM 30.1510 -80.6680 200° South 462 532 36,000 -2,520 Descending FlightAware
12:39AM 30.1330 -80.6740 196° South 462 532 35,700 -2,400 Descending FlightAware
12:39AM 30.1200 -80.6790 198° South 463 533 35,400 -2,640 Descending FlightAware
12:39AM 30.1010 -80.6860 198° South 465 535 35,000 -2,820 Descending FlightAware
12:39AM 30.0920 -80.6900 201° Southwest 467 537 34,800 -2,220 Descending FlightAware
12:39AM 30.0790 -80.6950 198° South 468 539 34,600 -2,400 Descending FlightAware
12:39AM 30.0610 -80.7010 196° South 471 542 34,200 -2,880 Descending FlightAware
12:39AM 30.0430 -80.7080 199° South 472 543 33,800 -2,520 Descending FlightAware
12:40AM 30.0370 -80.7110 203° Southwest 473 544 33,700 -2,520 Descending FlightAware
12:40AM 30.0190 -80.7170 196° South 473 544 33,300 -2,640 Descending FlightAware
12:40AM 30.0050 -80.7230 200° South 474 545 33,000 -2,400 Descending FlightAware
12:40AM 29.9860 -80.7290 195° South 474 545 32,700 -2,820 Descending FlightAware
12:40AM 29.9750 -80.7340 201° Southwest 474 545 32,400 -2,820 Descending FlightAware
12:40AM 29.9590 -80.7400 198° South 474 545 32,100 -2,400 Descending FlightAware
12:40AM 29.9450 -80.7450 197° South 474 545 31,800 -2,280 Descending FlightAware
12:40AM 29.9260 -80.7520 198° South 476 548 31,500 -2,340 Descending FlightAware
12:40AM 29.9170 -80.7550 196° South 476 548 31,300 -2,820 Descending FlightAware
12:41AM 29.8990 -80.7620 199° South 478 550 30,900 -2,640 Descending FlightAware
12:41AM 29.8850 -80.7670 197° South 479 551 30,600 -2,760 Descending FlightAware
12:41AM 29.8760 -80.7710 201° Southwest 480 552 30,400 -2,340 Descending FlightAware
12:41AM 29.8570 -80.7780 198° South 480 552 30,100 -2,520 Descending FlightAware
12:41AM 29.8400 -80.7840 197° South 479 551 29,700 -2,580 Descending FlightAware
12:41AM 29.8270 -80.7890 198° South 477 549 29,500 -2,760 Descending FlightAware
12:41AM 29.8150 -80.7930 196° South 476 548 29,200 -2,580 Descending FlightAware
12:41AM 29.7970 -80.8000 199° South 476 548 28,900 -2,220 Descending FlightAware
12:41AM 29.7930 -80.8020 203° Southwest 476 548 28,800 -2,820 Descending FlightAware
12:42AM 29.7700 -80.8100 197° South 475 547 28,300 -2,580 Descending FlightAware
12:42AM 29.7540 -80.8160 198° South 476 548 28,000 -2,280 Descending FlightAware
12:42AM 29.7360 -80.8230 199° South 477 549 27,700 -2,400 Descending FlightAware
12:42AM 29.7210 -80.8280 196° South 478 550 27,400 -2,520 Descending FlightAware
12:42AM 29.7130 -80.8310 198° South 479 551 27,200 -2,820 Descending FlightAware
12:42AM 29.6940 -80.8380 198° South 479 551 26,800 -2,820 Descending FlightAware
12:42AM 29.6800 -80.8440 200° South 480 552 26,500 -2,640 Descending FlightAware
12:43AM 29.6020 -80.8730 198° South 474 545 24,900 -2,580 Descending FlightAware
12:44AM 29.5370 -80.8970 198° South 465 535 23,600 -2,520 Descending FlightAware
12:44AM 29.4650 -80.9230 197° South 457 526 22,100 -2,520 Descending FlightAware
12:45AM 29.3920 -80.9500 198° South 445 512 20,600 -2,580 Descending FlightAware
12:45AM 29.3270 -80.9740 198° South 436 502 19,200 -2,580 Descending FlightAware
12:46AM 29.2580 -81.0000 198° South 423 487 17,700 -2,520 Descending FlightAware
12:46AM 29.1900 -81.0250 198° South 413 475 16,100 -2,580 Descending FlightAware
12:47AM 29.1320 -81.0460 198° South 410 472 14,800 -2,520 Descending FlightAware
12:48AM 29.0730 -81.0680 198° South 403 464 13,400 -2,400 Descending FlightAware
12:48AM 29.0190 -81.0850 195° South 395 455 12,300 -1,320 Descending FlightAware
12:49AM 28.9580 -81.0830 178° South 403 464 12,000 -180 Descending FlightAware
12:49AM 28.8920 -81.0930 188° South 398 458 12,100 -420 Climbing FlightAware
12:50AM 28.8150 -81.1070 189° South 375 432 11,500 -1,020 Descending FlightAware
12:51AM 28.7570 -81.1180 189° South 343 395 10,800 -1,260 Descending FlightAware
12:51AM 28.7070 -81.1280 190° South 319 367 10,100 -1,380 Descending FlightAware
12:51AM 28.6770 -81.1330 188° South 310 357 9,600 -1,680 Descending FlightAware
12:52AM 28.6410 -81.1400 190° South 312 359 8,800 -1,620 Descending FlightAware
12:52AM 28.6140 -81.1450 189° South 303 349 8,400 -1,320 Descending FlightAware
12:52AM 28.5960 -81.1490 191° South 296 341 8,100 -2,220 Descending FlightAware
12:53AM 28.5630 -81.1550 189° South 293 337 7,100 -2,580 Descending FlightAware
12:53AM 28.5500 -81.1570 188° South 297 342 6,600 -2,040 Descending FlightAware
12:53AM 28.5220 -81.1620 189° South 295 339 6,100 -900 Descending FlightAware
12:54AM 28.4980 -81.1670 190° South 286 329 6,000 -1,080 Descending FlightAware
12:54AM 28.4640 -81.1740 190° South 278 320 5,300 -2,400 Descending FlightAware
12:54AM 28.4370 -81.1790 189° South 278 320 4,200 -3,000 Descending FlightAware
12:55AM 28.4170 -81.1820 188° South 274 315 3,500 -2,820 Descending FlightAware
12:55AM 28.3880 -81.1870 189° South 274 315 2,400 -1,620 Descending FlightAware
12:56AM 28.3430 -81.1870 180° South 262 302 1,900 -900 Descending FlightAware
12:56AM 28.3360 -81.1880 187° South 257 296 1,800 -360 Descending FlightAware
12:56AM 28.3280 -81.1910 198° South 253 291 1,800 -300 Level FlightAware
12:56AM 28.3200 -81.1970 213° Southwest 245 282 1,700 -240 Descending FlightAware
12:56AM 28.3100 -81.2220 246° West 218 251 1,700  Level FlightAware
12:57AM 28.3100 -81.2530 270° West 200 230 1,700  Level FlightAware
12:57AM 28.3120 -81.2660 280° West 194 223 1,700 -180 Level FlightAware
12:58AM 28.3170 -81.2830 288° West 190 219 1,600 -120 Descending FlightAware
12:58AM 28.3250 -81.3040 293° West 190 219 1,600 -240 Level FlightAware
12:58AM 28.3170 -81.2830 113° Southeast 157 181 1,500 -420 Descending FlightAware
12:59AM 28.3480 -81.3110 322° Northwest 132 152 1,400 -120 Descending FlightAware
12:59AM 28.3600 -81.3180 333° Northwest 132 152 1,400 -780 Level FlightAware
12:59AM 28.3833 -81.3167 333° Northwest 122 140 700 -1,440 Descending Orlando TRACON
01:01AM 28.4167 -81.3000 336° Northwest  Level FlightAware Approximate
01:08AM 28.4294 -81.3090 336° Northwest  Level Estimated